Time;durP1;ratioP1;P1;durP2;ratioP2;P2;SDS_P1;SDS_P2;PMS_P1;PMS_P2;Temp;Humidity;BMP_temperature;BMP_pressure;BME280_temperature;BME280_humidity;BME280_pressure;Samples;Min_cycle;Max_cycle;Signal;HPM_P1;HPM_P2
2023/05/09 00:00:46;;;;;;;;;3.33;2.67;;;;;;;;6372328;22;46358;-72
2023/05/09 00:03:13;;;;;;;;;4.33;4.33;;;;;;;;6372203;22;45180;-72
2023/05/09 00:05:38;;;;;;;;;6.00;3.67;;;;;;;;6372467;22;45298;-72
2023/05/09 00:08:03;;;;;;;;;3.00;3.00;;;;;;;;6372015;22;45432;-72
2023/05/09 00:10:28;;;;;;;;;3.00;3.00;;;;;;;;6372252;22;45339;-72
2023/05/09 00:12:54;;;;;;;;;4.00;4.00;;;;;;;;6342777;22;44884;-71
2023/05/09 00:15:20;;;;;;;;;4.00;4.00;;;;;;;;6371894;22;45277;-71
2023/05/09 00:17:45;;;;;;;;;4.00;4.00;;;;;;;;6372163;22;45414;-72
2023/05/09 00:20:11;;;;;;;;;4.33;4.33;;;;;;;;6371240;22;45285;-71
2023/05/09 00:22:36;;;;;;;;;5.00;4.00;;;;;;;;6372191;22;45229;-72
2023/05/09 00:25:02;;;;;;;;;3.00;3.00;;;;;;;;6371944;22;45176;-71
2023/05/09 00:27:29;;;;;;;;;5.00;5.00;;;;;;;;6372177;22;45305;-72
2023/05/09 00:29:54;;;;;;;;;4.33;3.67;;;;;;;;6371725;22;45432;-71
2023/05/09 00:32:20;;;;;;;;;4.00;4.00;;;;;;;;6342624;22;45393;-73
2023/05/09 00:34:45;;;;;;;;;3.67;3.67;;;;;;;;6372681;22;45151;-71
2023/05/09 00:37:10;;;;;;;;;6.67;5.00;;;;;;;;6372523;22;45459;-71
2023/05/09 00:39:35;;;;;;;;;4.00;4.00;;;;;;;;6371899;22;45554;-71
2023/05/09 00:42:02;;;;;;;;;6.00;5.00;;;;;;;;6371978;22;45277;-71
2023/05/09 00:44:27;;;;;;;;;3.00;3.00;;;;;;;;6372207;22;45468;-72
2023/05/09 00:46:52;;;;;;;;;4.00;4.00;;;;;;;;6343601;22;45819;-71
2023/05/09 00:49:17;;;;;;;;;5.33;4.00;;;;;;;;6343375;22;47102;-71
2023/05/09 00:51:43;;;;;;;;;5.00;5.00;;;;;;;;6372410;22;45352;-72
2023/05/09 00:54:08;;;;;;;;;4.00;4.00;;;;;;;;6371848;22;45436;-71
2023/05/09 00:56:33;;;;;;;;;2.33;2.33;;;;;;;;6372179;22;45421;-72
2023/05/09 00:58:58;;;;;;;;;5.00;5.00;;;;;;;;6371245;22;46314;-71
2023/05/09 01:01:24;;;;;;;;;6.33;4.67;;;;;;;;6372155;22;45242;-72
2023/05/09 01:03:49;;;;;;;;;4.00;4.00;;;;;;;;6371514;22;45196;-72
2023/05/09 01:06:20;;;;;;;;;5.00;5.00;;;;;;;;6372201;22;45442;-71
2023/05/09 01:08:51;;;;;;;;;4.33;4.33;;;;;;;;6371653;22;45629;-72
2023/05/09 01:11:28;;;;;;;;;6.00;6.00;;;;;;;;6372008;22;45238;-71
2023/05/09 01:14:05;;;;;;;;;5.33;5.00;;;;;;;;6371396;22;45176;-71
2023/05/09 01:16:50;;;;;;;;;5.00;4.00;;;;;;;;6343283;22;45389;-72
2023/05/09 01:19:36;;;;;;;;;3.00;3.00;;;;;;;;6370415;22;45270;-71
2023/05/09 01:22:03;;;;;;;;;5.67;5.00;;;;;;;;6290193;22;45388;-71
2023/05/09 01:24:56;;;;;;;;;4.67;4.33;;;;;;;;6371684;22;45370;-72
2023/05/09 01:27:43;;;;;;;;;5.33;4.00;;;;;;;;6343378;22;45436;-71
2023/05/09 01:30:10;;;;;;;;;4.00;4.00;;;;;;;;6369753;22;46635;-71
2023/05/09 01:32:37;;;;;;;;;4.33;3.33;;;;;;;;6343108;22;45213;-71
2023/05/09 01:35:03;;;;;;;;;5.67;4.00;;;;;;;;6343277;22;45318;-71
2023/05/09 01:37:30;;;;;;;;;4.67;4.67;;;;;;;;6371682;22;45222;-72
2023/05/09 01:39:57;;;;;;;;;4.33;4.33;;;;;;;;6371281;22;45240;-72
2023/05/09 01:42:25;;;;;;;;;3.67;3.67;;;;;;;;6371772;22;45260;-72
2023/05/09 01:44:51;;;;;;;;;3.33;3.33;;;;;;;;6371556;22;44751;-72
2023/05/09 01:47:18;;;;;;;;;3.33;3.33;;;;;;;;6371877;22;45919;-72
2023/05/09 01:49:43;;;;;;;;;4.67;4.33;;;;;;;;6371379;22;45192;-72
2023/05/09 01:52:12;;;;;;;;;4.00;4.00;;;;;;;;6371293;22;45232;-71
2023/05/09 01:54:38;;;;;;;;;4.67;4.67;;;;;;;;6371640;22;45155;-72
2023/05/09 01:57:04;;;;;;;;;5.00;3.33;;;;;;;;6371530;22;45451;-72
2023/05/09 01:59:31;;;;;;;;;4.00;3.00;;;;;;;;6371259;22;46458;-72
2023/05/09 02:01:57;;;;;;;;;3.00;2.67;;;;;;;;6371650;22;45319;-72
2023/05/09 02:04:23;;;;;;;;;5.00;5.00;;;;;;;;6371847;22;45291;-71
2023/05/09 02:06:50;;;;;;;;;5.00;4.00;;;;;;;;6371626;22;45093;-71
2023/05/09 02:09:16;;;;;;;;;4.33;4.33;;;;;;;;6342411;22;47835;-72
2023/05/09 02:11:41;;;;;;;;;5.67;4.67;;;;;;;;6371582;22;45277;-72
2023/05/09 02:14:06;;;;;;;;;5.67;5.00;;;;;;;;6371144;22;45219;-71
2023/05/09 02:16:32;;;;;;;;;5.00;5.00;;;;;;;;6343001;22;46390;-72
2023/05/09 02:18:57;;;;;;;;;4.00;4.00;;;;;;;;6371148;22;46044;-71
2023/05/09 02:21:23;;;;;;;;;4.00;4.00;;;;;;;;6371510;22;45077;-72
2023/05/09 02:23:48;;;;;;;;;4.67;4.00;;;;;;;;6371460;22;45446;-72
2023/05/09 02:26:14;;;;;;;;;4.00;4.00;;;;;;;;6371497;22;45268;-71
2023/05/09 02:28:40;;;;;;;;;3.00;3.00;;;;;;;;6342140;22;46558;-72
2023/05/09 02:31:07;;;;;;;;;4.00;4.00;;;;;;;;6371221;22;45269;-72
2023/05/09 02:33:33;;;;;;;;;7.00;4.00;;;;;;;;6341805;22;45284;-72
2023/05/09 02:35:59;;;;;;;;;5.00;5.00;;;;;;;;6370748;22;45226;-72
2023/05/09 02:38:26;;;;;;;;;5.00;3.67;;;;;;;;6370926;22;45411;-72
2023/05/09 02:40:51;;;;;;;;;3.67;3.67;;;;;;;;6342694;22;45202;-72
2023/05/09 02:43:16;;;;;;;;;4.33;4.33;;;;;;;;6371095;22;45238;-72
2023/05/09 02:45:42;;;;;;;;;5.67;4.33;;;;;;;;6371314;22;45168;-72
2023/05/09 02:48:07;;;;;;;;;4.33;4.33;;;;;;;;6342768;22;46483;-72
2023/05/09 02:50:33;;;;;;;;;5.00;4.00;;;;;;;;6372875;22;45195;-72
2023/05/09 02:52:58;;;;;;;;;4.67;4.67;;;;;;;;6343892;22;45192;-71
2023/05/09 02:55:23;;;;;;;;;4.33;3.33;;;;;;;;6343463;22;45263;-72
2023/05/09 02:57:48;;;;;;;;;4.00;4.00;;;;;;;;6372400;22;45382;-71
2023/05/09 03:00:14;;;;;;;;;6.00;5.00;;;;;;;;6372138;22;45237;-72
2023/05/09 03:02:39;;;;;;;;;5.33;4.00;;;;;;;;6371873;22;45260;-72
2023/05/09 03:05:05;;;;;;;;;8.33;5.00;;;;;;;;6342515;22;46084;-71
2023/05/09 03:07:30;;;;;;;;;5.00;4.00;;;;;;;;6372602;22;45820;-71
2023/05/09 03:09:55;;;;;;;;;4.33;4.33;;;;;;;;6342720;22;45294;-71
2023/05/09 03:12:20;;;;;;;;;5.00;3.33;;;;;;;;6343660;22;45295;-71
2023/05/09 03:14:46;;;;;;;;;5.00;3.67;;;;;;;;6371614;22;45482;-71
2023/05/09 03:17:11;;;;;;;;;4.67;4.33;;;;;;;;6372588;22;45446;-71
2023/05/09 03:19:36;;;;;;;;;4.00;4.00;;;;;;;;6372559;22;45322;-71
2023/05/09 03:22:01;;;;;;;;;4.33;4.33;;;;;;;;6373013;22;45574;-71
2023/05/09 03:24:29;;;;;;;;;4.67;4.33;;;;;;;;6372158;22;45377;-71
2023/05/09 03:26:54;;;;;;;;;4.00;4.00;;;;;;;;6372314;22;45536;-72
2023/05/09 03:29:19;;;;;;;;;4.00;4.00;;;;;;;;6342400;22;45429;-72
2023/05/09 03:31:45;;;;;;;;;5.00;4.00;;;;;;;;6372837;22;45151;-72
2023/05/09 03:34:13;;;;;;;;;3.00;3.00;;;;;;;;6371828;22;45173;-72
2023/05/09 03:36:39;;;;;;;;;4.67;4.00;;;;;;;;6372326;22;45491;-72
2023/05/09 03:39:04;;;;;;;;;4.00;4.00;;;;;;;;6372191;22;45362;-72
2023/05/09 03:41:29;;;;;;;;;4.00;4.00;;;;;;;;6344256;22;45287;-72
2023/05/09 03:43:54;;;;;;;;;4.00;4.00;;;;;;;;6371628;22;45255;-72
2023/05/09 03:46:19;;;;;;;;;5.00;4.00;;;;;;;;6343456;22;46809;-72
2023/05/09 03:48:45;;;;;;;;;4.00;4.00;;;;;;;;6372007;22;45412;-71
2023/05/09 03:51:10;;;;;;;;;3.00;3.00;;;;;;;;6372688;22;45225;-71
2023/05/09 03:53:35;;;;;;;;;3.33;3.33;;;;;;;;6371907;22;45307;-72
2023/05/09 03:56:00;;;;;;;;;3.00;3.00;;;;;;;;6372204;22;46403;-71
2023/05/09 03:58:26;;;;;;;;;4.00;2.00;;;;;;;;6371643;22;45186;-72
2023/05/09 04:00:51;;;;;;;;;3.00;3.00;;;;;;;;6343821;22;45268;-72
2023/05/09 04:03:16;;;;;;;;;2.00;2.00;;;;;;;;6372501;22;45181;-72
2023/05/09 04:05:41;;;;;;;;;3.00;3.00;;;;;;;;6372933;22;45570;-72
2023/05/09 04:08:06;;;;;;;;;2.67;2.67;;;;;;;;6343684;22;45365;-72
2023/05/09 04:10:32;;;;;;;;;2.67;1.67;;;;;;;;6373390;22;45255;-72
2023/05/09 04:12:57;;;;;;;;;2.00;2.00;;;;;;;;6372363;22;45479;-72
2023/05/09 04:15:22;;;;;;;;;2.33;2.00;;;;;;;;6372167;22;45468;-72
2023/05/09 04:17:47;;;;;;;;;4.00;3.00;;;;;;;;6372852;22;45321;-72
2023/05/09 04:20:12;;;;;;;;;2.33;2.33;;;;;;;;6344006;22;45407;-73
2023/05/09 04:22:38;;;;;;;;;3.00;3.00;;;;;;;;6372152;22;45727;-72
2023/05/09 04:25:03;;;;;;;;;4.00;2.00;;;;;;;;6343723;22;46986;-72
2023/05/09 04:27:29;;;;;;;;;1.33;1.33;;;;;;;;6372738;22;45210;-73
2023/05/09 04:29:54;;;;;;;;;3.00;2.00;;;;;;;;6372429;22;45213;-72
2023/05/09 04:32:19;;;;;;;;;2.00;2.00;;;;;;;;6343954;22;47055;-72
2023/05/09 04:34:45;;;;;;;;;4.33;3.00;;;;;;;;6343640;22;46812;-72
2023/05/09 04:37:12;;;;;;;;;2.67;2.67;;;;;;;;6343066;22;45192;-72
2023/05/09 04:39:37;;;;;;;;;3.00;3.00;;;;;;;;6372730;22;45160;-72
2023/05/09 04:42:03;;;;;;;;;3.33;2.00;;;;;;;;6372379;22;45282;-72
2023/05/09 04:44:28;;;;;;;;;3.00;2.00;;;;;;;;6342913;22;45648;-73
2023/05/09 04:46:54;;;;;;;;;2.00;2.00;;;;;;;;6343568;22;45160;-72
2023/05/09 04:49:19;;;;;;;;;5.00;2.33;;;;;;;;6343592;22;45368;-71
2023/05/09 04:51:44;;;;;;;;;1.33;1.33;;;;;;;;6343652;22;46310;-72
2023/05/09 04:54:09;;;;;;;;;2.00;2.00;;;;;;;;6341749;22;45273;-73
2023/05/09 04:56:35;;;;;;;;;1.00;1.00;;;;;;;;6342972;22;45244;-71
2023/05/09 04:59:00;;;;;;;;;1.00;1.00;;;;;;;;6371975;22;45192;-72
2023/05/09 05:01:25;;;;;;;;;1.00;1.00;;;;;;;;6343038;22;46702;-73
2023/05/09 05:03:50;;;;;;;;;2.67;2.00;;;;;;;;6372018;22;45310;-73
2023/05/09 05:06:16;;;;;;;;;3.00;1.00;;;;;;;;6341082;22;45319;-71
2023/05/09 05:08:41;;;;;;;;;5.33;2.00;;;;;;;;6343351;22;45278;-71
2023/05/09 05:11:07;;;;;;;;;1.00;1.00;;;;;;;;6370997;22;45195;-71
2023/05/09 05:13:32;;;;;;;;;3.67;2.33;;;;;;;;6371206;22;45568;-72
2023/05/09 05:15:57;;;;;;;;;4.33;1.67;;;;;;;;6343641;22;45326;-71
2023/05/09 05:18:22;;;;;;;;;3.33;2.00;;;;;;;;6371745;22;45270;-71
2023/05/09 05:20:48;;;;;;;;;3.67;3.00;;;;;;;;6371904;22;45593;-74
2023/05/09 05:23:13;;;;;;;;;3.00;3.00;;;;;;;;6342103;22;46850;-73
2023/05/09 05:25:38;;;;;;;;;4.33;2.33;;;;;;;;6343334;22;45361;-74
2023/05/09 05:28:03;;;;;;;;;4.33;4.33;;;;;;;;6371725;22;45256;-72
2023/05/09 05:30:29;;;;;;;;;4.67;3.33;;;;;;;;6371841;22;45089;-72
2023/05/09 05:32:54;;;;;;;;;3.00;3.00;;;;;;;;6371909;22;46225;-74
2023/05/09 05:35:22;;;;;;;;;2.00;2.00;;;;;;;;6371820;22;45249;-74
2023/05/09 05:37:47;;;;;;;;;11.33;9.00;;;;;;;;6372445;22;45221;-73
2023/05/09 05:40:12;;;;;;;;;3.00;2.00;;;;;;;;6342517;22;46027;-74
2023/05/09 05:42:38;;;;;;;;;3.33;3.00;;;;;;;;6371865;22;45359;-74
2023/05/09 05:45:03;;;;;;;;;2.33;2.33;;;;;;;;6371527;22;45243;-74
2023/05/09 05:47:32;;;;;;;;;2.00;2.00;;;;;;;;6372538;22;45086;-73
2023/05/09 05:49:58;;;;;;;;;4.67;3.00;;;;;;;;6342070;22;46713;-74
2023/05/09 05:52:23;;;;;;;;;2.00;2.00;;;;;;;;6371862;22;45997;-74
2023/05/09 05:54:48;;;;;;;;;4.00;4.00;;;;;;;;6372090;22;45278;-74
2023/05/09 05:57:13;;;;;;;;;3.33;3.33;;;;;;;;6343547;22;45572;-74
2023/05/09 05:59:38;;;;;;;;;2.33;2.00;;;;;;;;6371396;22;45471;-74
2023/05/09 06:02:04;;;;;;;;;6.00;3.00;;;;;;;;6343205;22;47249;-74
2023/05/09 06:04:29;;;;;;;;;3.67;3.67;;;;;;;;6343076;22;45301;-74
2023/05/09 06:06:54;;;;;;;;;2.67;2.00;;;;;;;;6372366;22;45461;-74
2023/05/09 06:09:19;;;;;;;;;5.00;4.00;;;;;;;;6371778;22;45198;-74
2023/05/09 06:11:45;;;;;;;;;4.33;4.00;;;;;;;;6342637;22;47615;-74
2023/05/09 06:14:10;;;;;;;;;2.67;2.33;;;;;;;;6341686;22;45345;-71
2023/05/09 06:16:35;;;;;;;;;5.33;3.33;;;;;;;;6371458;22;45301;-74
2023/05/09 06:19:00;;;;;;;;;3.33;2.33;;;;;;;;6342914;22;45489;-75
2023/05/09 06:21:25;;;;;;;;;5.00;5.00;;;;;;;;6371679;22;46217;-73
2023/05/09 06:23:50;;;;;;;;;5.00;4.67;;;;;;;;6346121;22;45177;-73
2023/05/09 06:26:16;;;;;;;;;4.67;3.00;;;;;;;;6375592;22;45162;-74
2023/05/09 06:28:41;;;;;;;;;3.67;3.67;;;;;;;;6374376;22;45380;-73
2023/05/09 06:31:06;;;;;;;;;1.33;1.33;;;;;;;;6375258;22;46322;-73
2023/05/09 06:33:31;;;;;;;;;3.33;3.33;;;;;;;;6375014;22;45583;-73
2023/05/09 06:35:58;;;;;;;;;2.00;2.00;;;;;;;;6375491;22;45312;-73
2023/05/09 06:38:23;;;;;;;;;3.00;3.00;;;;;;;;6374968;22;45381;-73
2023/05/09 06:40:48;;;;;;;;;2.00;2.00;;;;;;;;6345767;22;46594;-73
2023/05/09 06:43:13;;;;;;;;;2.67;2.67;;;;;;;;6374924;22;45287;-73
2023/05/09 06:45:38;;;;;;;;;7.00;5.67;;;;;;;;6346239;22;45258;-73
2023/05/09 06:48:04;;;;;;;;;2.00;2.00;;;;;;;;6346009;22;46763;-74
2023/05/09 06:50:29;;;;;;;;;3.00;3.00;;;;;;;;6346145;22;47035;-73
2023/05/09 06:52:54;;;;;;;;;1.33;1.33;;;;;;;;6345359;22;45606;-73
2023/05/09 06:55:19;;;;;;;;;2.67;2.00;;;;;;;;6375005;22;45293;-73
2023/05/09 06:57:45;;;;;;;;;4.00;2.00;;;;;;;;6375006;22;45211;-73
2023/05/09 07:00:11;;;;;;;;;2.00;2.00;;;;;;;;6373626;22;45636;-74
2023/05/09 07:02:40;;;;;;;;;2.33;2.00;;;;;;;;6374336;22;45679;-73
2023/05/09 07:05:05;;;;;;;;;1.33;1.33;;;;;;;;6374326;22;45169;-73
2023/05/09 07:07:31;;;;;;;;;3.00;3.00;;;;;;;;6344870;22;45910;-73
2023/05/09 07:09:56;;;;;;;;;3.00;3.00;;;;;;;;6345475;22;46889;-73
2023/05/09 07:12:21;;;;;;;;;2.00;2.00;;;;;;;;6375311;22;45131;-72
2023/05/09 07:14:46;;;;;;;;;1.00;1.00;;;;;;;;6345877;22;45981;-73
2023/05/09 07:17:12;;;;;;;;;1.33;1.33;;;;;;;;6375630;22;45179;-72
2023/05/09 07:19:37;;;;;;;;;3.67;2.00;;;;;;;;6374479;22;46236;-74
2023/05/09 07:22:02;;;;;;;;;3.67;2.67;;;;;;;;6346463;22;45285;-73
2023/05/09 07:24:27;;;;;;;;;2.67;2.33;;;;;;;;6344997;22;45168;-73
2023/05/09 07:26:52;;;;;;;;;1.33;1.00;;;;;;;;6346073;22;46167;-73
2023/05/09 07:29:19;;;;;;;;;2.00;2.00;;;;;;;;6374314;22;45575;-73
2023/05/09 07:31:44;;;;;;;;;3.00;3.00;;;;;;;;6374693;22;45299;-73
2023/05/09 07:34:09;;;;;;;;;3.00;2.00;;;;;;;;6344459;22;45314;-73
2023/05/09 07:36:36;;;;;;;;;1.67;1.33;;;;;;;;6343578;22;45748;-73
2023/05/09 07:39:01;;;;;;;;;3.00;3.00;;;;;;;;6344006;22;47032;-73
2023/05/09 07:41:26;;;;;;;;;2.33;2.33;;;;;;;;6372211;22;45242;-74
2023/05/09 07:43:51;;;;;;;;;2.00;2.00;;;;;;;;6343252;22;45220;-74
2023/05/09 07:46:16;;;;;;;;;2.00;2.00;;;;;;;;6372752;22;45292;-74
2023/05/09 07:48:42;;;;;;;;;2.67;2.67;;;;;;;;6372549;22;46194;-74
2023/05/09 07:51:07;;;;;;;;;5.00;4.00;;;;;;;;6344024;22;45223;-73
2023/05/09 15:36:12;;;;;;;;;5.33;5.33;;;;;;;;6302146;22;45742;-75
2023/05/09 15:38:37;;;;;;;;;5.67;5.67;;;;;;;;6371989;22;45425;-74
2023/05/09 15:41:03;;;;;;;;;6.33;6.33;;;;;;;;6371883;22;45206;-74
2023/05/09 15:43:28;;;;;;;;;5.67;5.67;;;;;;;;6342866;22;45216;-73
2023/05/09 15:45:53;;;;;;;;;6.67;5.67;;;;;;;;6371714;22;45085;-73
2023/05/09 15:48:18;;;;;;;;;6.00;6.00;;;;;;;;6342765;22;46760;-74
2023/05/09 15:50:43;;;;;;;;;6.67;5.33;;;;;;;;6371585;22;45174;-74
2023/05/09 15:53:09;;;;;;;;;3.33;3.33;;;;;;;;6343137;22;45231;-74
2023/05/09 15:55:34;;;;;;;;;6.33;5.33;;;;;;;;6342801;22;45524;-74
2023/05/09 15:57:59;;;;;;;;;6.67;6.67;;;;;;;;6372400;22;45498;-74
2023/05/09 16:00:24;;;;;;;;;5.67;5.67;;;;;;;;6372479;22;45209;-74
2023/05/09 16:02:50;;;;;;;;;6.00;6.00;;;;;;;;6372736;22;45143;-74
2023/05/09 16:05:15;;;;;;;;;6.00;4.67;;;;;;;;6371769;22;45465;-74
2023/05/09 16:07:44;;;;;;;;;6.00;5.67;;;;;;;;6371657;22;46282;-74
2023/05/09 16:10:10;;;;;;;;;5.67;5.67;;;;;;;;6343513;22;45502;-74
2023/05/09 16:12:35;;;;;;;;;5.33;5.33;;;;;;;;6343304;22;45295;-74
2023/05/09 16:15:00;;;;;;;;;4.67;4.67;;;;;;;;6371737;22;45474;-74
2023/05/09 16:17:26;;;;;;;;;8.33;4.33;;;;;;;;6343035;22;47046;-74
2023/05/09 16:19:51;;;;;;;;;4.67;4.67;;;;;;;;6371865;22;45257;-73
2023/05/09 16:22:16;;;;;;;;;5.00;4.00;;;;;;;;6341755;22;45336;-75
2023/05/09 16:24:42;;;;;;;;;5.00;5.00;;;;;;;;6343072;22;45325;-73
2023/05/09 16:27:08;;;;;;;;;4.00;4.00;;;;;;;;6342936;22;46834;-74
2023/05/09 16:29:33;;;;;;;;;4.33;4.33;;;;;;;;6372016;22;45108;-73
2023/05/09 16:31:58;;;;;;;;;6.33;5.33;;;;;;;;6343048;22;45510;-73
2023/05/09 16:34:23;;;;;;;;;5.67;5.67;;;;;;;;6372087;22;45294;-74
2023/05/09 16:36:48;;;;;;;;;5.67;4.33;;;;;;;;6370283;22;46551;-74
2023/05/09 16:39:14;;;;;;;;;6.00;5.00;;;;;;;;6372063;22;45186;-74
2023/05/09 16:41:39;;;;;;;;;6.00;4.67;;;;;;;;6342854;22;45182;-73
2023/05/09 16:44:04;;;;;;;;;3.67;3.67;;;;;;;;6343324;22;46102;-75
2023/05/09 16:46:29;;;;;;;;;5.67;5.67;;;;;;;;6371489;22;45303;-74
2023/05/09 16:48:54;;;;;;;;;7.00;5.67;;;;;;;;6342995;22;45263;-74
2023/05/09 16:51:20;;;;;;;;;5.67;5.67;;;;;;;;6371346;22;45369;-74
2023/05/09 16:53:45;;;;;;;;;6.67;5.67;;;;;;;;6371800;22;45139;-74
2023/05/09 16:56:10;;;;;;;;;8.67;7.00;;;;;;;;6371742;22;45296;-74
2023/05/09 16:58:36;;;;;;;;;7.33;7.33;;;;;;;;6342984;22;45686;-74
2023/05/09 17:01:01;;;;;;;;;7.00;7.00;;;;;;;;6342405;22;45427;-74
2023/05/09 17:03:26;;;;;;;;;7.33;6.00;;;;;;;;6371649;22;45179;-74
2023/05/09 17:05:52;;;;;;;;;6.00;4.00;;;;;;;;6370179;22;45949;-75
2023/05/09 17:08:17;;;;;;;;;3.00;3.00;;;;;;;;6371366;22;45220;-75
2023/05/09 17:10:42;;;;;;;;;7.00;7.00;;;;;;;;6370612;22;45209;-75
2023/05/09 17:13:07;;;;;;;;;13.00;10.00;;;;;;;;6371951;22;45164;-75
2023/05/09 17:15:33;;;;;;;;;13.00;12.00;;;;;;;;6371719;22;46029;-75
2023/05/09 17:17:58;;;;;;;;;7.33;4.33;;;;;;;;6373860;22;45291;-75
2023/05/09 17:20:24;;;;;;;;;3.67;3.67;;;;;;;;6343054;22;45239;-75
2023/05/09 17:22:49;;;;;;;;;4.33;3.67;;;;;;;;6372025;22;45408;-76
2023/05/09 17:25:15;;;;;;;;;9.00;7.33;;;;;;;;6371661;22;45271;-76
2023/05/09 17:27:41;;;;;;;;;7.67;6.00;;;;;;;;6372309;22;45176;-75
2023/05/09 17:30:07;;;;;;;;;4.67;3.67;;;;;;;;6373271;22;45283;-76
2023/05/09 17:32:32;;;;;;;;;4.67;4.67;;;;;;;;6374110;22;44746;-75
2023/05/09 17:34:57;;;;;;;;;4.00;4.00;;;;;;;;6343328;22;45310;-75
2023/05/09 17:37:22;;;;;;;;;10.67;9.33;;;;;;;;6342212;22;45839;-76
2023/05/09 17:39:47;;;;;;;;;4.33;2.33;;;;;;;;6342941;22;45267;-76
2023/05/09 17:42:13;;;;;;;;;3.33;3.00;;;;;;;;6371679;22;45219;-76
2023/05/09 17:44:38;;;;;;;;;4.00;4.00;;;;;;;;6371696;22;45247;-77
2023/05/09 17:47:04;;;;;;;;;5.00;5.00;;;;;;;;6371725;22;45548;-77
2023/05/09 17:49:29;;;;;;;;;5.00;5.00;;;;;;;;6372456;22;45435;-76
2023/05/09 17:51:58;;;;;;;;;6.00;4.67;;;;;;;;6342061;22;45981;-76
2023/05/09 17:54:23;;;;;;;;;4.33;3.33;;;;;;;;6371392;22;45266;-76
2023/05/09 17:56:54;;;;;;;;;3.67;3.67;;;;;;;;6371719;22;45241;-77
2023/05/09 17:59:19;;;;;;;;;3.67;3.67;;;;;;;;6372351;22;45233;-77
2023/05/09 18:01:44;;;;;;;;;4.00;4.00;;;;;;;;6371306;22;45177;-76
2023/05/09 18:04:09;;;;;;;;;4.67;4.33;;;;;;;;6371800;22;45186;-76
2023/05/09 18:06:35;;;;;;;;;5.00;5.00;;;;;;;;6371568;22;45104;-75
2023/05/09 18:09:00;;;;;;;;;6.00;5.00;;;;;;;;6342551;22;45131;-76
2023/05/09 18:11:25;;;;;;;;;3.67;3.67;;;;;;;;6342212;22;45669;-76
2023/05/09 18:13:51;;;;;;;;;5.00;4.00;;;;;;;;6342164;22;47859;-75
2023/05/09 18:16:16;;;;;;;;;4.67;4.67;;;;;;;;6343164;22;45152;-76
2023/05/09 18:18:43;;;;;;;;;4.00;3.00;;;;;;;;6371729;22;45053;-76
2023/05/09 18:21:08;;;;;;;;;5.33;5.33;;;;;;;;6369485;22;45232;-76
2023/05/09 18:23:34;;;;;;;;;5.00;4.67;;;;;;;;6371475;22;45246;-76
2023/05/09 18:25:59;;;;;;;;;8.33;3.67;;;;;;;;6371504;22;45395;-76
2023/05/09 18:28:24;;;;;;;;;4.00;4.00;;;;;;;;6343172;22;45226;-76
2023/05/09 18:30:55;;;;;;;;;3.67;3.67;;;;;;;;6371644;22;45195;-76
2023/05/09 18:33:25;;;;;;;;;4.67;3.67;;;;;;;;6342273;22;46823;-76
2023/05/09 18:35:54;;;;;;;;;3.00;3.00;;;;;;;;6370770;22;45285;-75
2023/05/09 18:38:19;;;;;;;;;3.00;2.00;;;;;;;;6343220;22;45182;-75
2023/05/09 18:40:44;;;;;;;;;3.67;3.67;;;;;;;;6371003;22;45354;-76
2023/05/09 18:43:10;;;;;;;;;2.33;2.33;;;;;;;;6342516;22;48016;-75
2023/05/09 18:45:35;;;;;;;;;4.33;4.00;;;;;;;;6370109;22;45246;-76
2023/05/09 18:48:01;;;;;;;;;4.00;4.00;;;;;;;;6342496;22;45138;-76
2023/05/09 18:50:26;;;;;;;;;3.33;3.33;;;;;;;;6370333;22;45392;-76
2023/05/09 18:52:51;;;;;;;;;5.33;4.00;;;;;;;;6371068;22;45215;-76
2023/05/09 18:55:18;;;;;;;;;3.33;3.00;;;;;;;;6341614;22;45220;-78
2023/05/09 18:57:44;;;;;;;;;3.00;3.00;;;;;;;;6371144;22;45309;-77
2023/05/09 19:00:09;;;;;;;;;7.00;3.67;;;;;;;;6370792;22;45362;-76
2023/05/09 19:02:34;;;;;;;;;3.00;3.00;;;;;;;;6371222;22;45280;-76
2023/05/09 19:05:04;;;;;;;;;3.33;3.33;;;;;;;;6370219;22;45255;-77
2023/05/09 19:07:29;;;;;;;;;4.00;4.00;;;;;;;;6341100;22;45255;-77
2023/05/09 19:09:54;;;;;;;;;6.00;4.00;;;;;;;;6342056;22;45922;-76
2023/05/09 19:12:20;;;;;;;;;3.67;3.67;;;;;;;;6370298;22;46102;-77
2023/05/09 19:14:45;;;;;;;;;4.00;3.00;;;;;;;;6370479;22;45191;-76
2023/05/09 19:17:10;;;;;;;;;4.00;4.00;;;;;;;;6341428;22;45374;-74
2023/05/09 19:19:36;;;;;;;;;4.33;4.00;;;;;;;;6370969;22;45416;-74
2023/05/09 19:22:01;;;;;;;;;5.00;5.00;;;;;;;;6369256;22;46036;-76
2023/05/09 19:24:26;;;;;;;;;5.67;3.00;;;;;;;;6371517;22;45210;-77
2023/05/09 19:26:51;;;;;;;;;5.67;3.00;;;;;;;;6370670;22;45306;-77
2023/05/09 19:29:17;;;;;;;;;6.00;5.00;;;;;;;;6370744;22;45405;-75
2023/05/09 19:31:42;;;;;;;;;5.00;4.00;;;;;;;;6371679;22;45226;-76
2023/05/09 19:34:08;;;;;;;;;3.67;2.00;;;;;;;;6372564;22;45147;-76
2023/05/09 19:36:33;;;;;;;;;2.67;2.67;;;;;;;;6337905;22;45452;-76
2023/05/09 19:38:59;;;;;;;;;3.67;3.67;;;;;;;;6340780;22;45249;-75
2023/05/09 19:41:24;;;;;;;;;3.00;3.00;;;;;;;;6337750;22;46892;-76
2023/05/09 19:43:50;;;;;;;;;50.25;41.75;;;;;;;;6341044;22;45277;-76
2023/05/09 19:46:15;;;;;;;;;6.00;6.00;;;;;;;;6339777;22;45175;-78
2023/05/09 19:48:40;;;;;;;;;7.00;7.00;;;;;;;;6340908;22;46251;-79
2023/05/09 19:51:07;;;;;;;;;10.33;10.33;;;;;;;;6341270;22;46360;-78
2023/05/09 19:53:32;;;;;;;;;4.67;4.67;;;;;;;;6339682;22;45208;-77
2023/05/09 19:55:58;;;;;;;;;9.33;8.67;;;;;;;;6341672;22;45202;-76
2023/05/09 19:58:23;;;;;;;;;9.67;9.67;;;;;;;;6341749;22;45151;-77
2023/05/09 20:00:48;;;;;;;;;10.67;9.00;;;;;;;;6340818;22;45215;-75
2023/05/09 20:03:13;;;;;;;;;5.00;4.00;;;;;;;;6341058;22;45218;-75
2023/05/09 20:05:39;;;;;;;;;4.00;4.00;;;;;;;;6340313;22;45249;-75
2023/05/09 20:08:04;;;;;;;;;3.00;3.00;;;;;;;;6341027;22;45221;-78
2023/05/09 20:10:29;;;;;;;;;5.67;5.00;;;;;;;;6338572;22;46141;-78
2023/05/09 20:12:57;;;;;;;;;5.33;5.33;;;;;;;;6338340;22;45251;-76
2023/05/09 20:15:23;;;;;;;;;13.00;13.00;;;;;;;;6340261;22;45250;-74
2023/05/09 20:17:48;;;;;;;;;24.00;22.67;;;;;;;;6340112;22;45402;-74
2023/05/09 20:20:13;;;;;;;;;26.67;26.00;;;;;;;;6336313;22;45927;-75
2023/05/09 20:22:38;;;;;;;;;11.00;10.00;;;;;;;;6339464;22;45395;-74
2023/05/09 20:25:04;;;;;;;;;6.67;6.67;;;;;;;;6340306;22;45313;-75
2023/05/09 20:27:29;;;;;;;;;15.33;13.00;;;;;;;;6340150;22;45171;-75
2023/05/09 20:29:55;;;;;;;;;6.00;6.00;;;;;;;;6339869;22;45154;-75
2023/05/09 20:32:21;;;;;;;;;6.67;6.67;;;;;;;;6339893;22;45238;-75
2023/05/09 20:34:46;;;;;;;;;10.00;8.33;;;;;;;;6340498;22;45276;-75
2023/05/09 20:37:11;;;;;;;;;6.00;3.67;;;;;;;;6337403;22;45980;-74
2023/05/09 20:39:38;;;;;;;;;3.67;3.00;;;;;;;;6340593;22;46453;-76
2023/05/09 20:42:05;;;;;;;;;4.67;4.67;;;;;;;;6339669;22;45233;-74
2023/05/09 20:44:30;;;;;;;;;3.00;3.00;;;;;;;;6340255;22;45174;-75
2023/05/09 20:46:55;;;;;;;;;5.33;5.00;;;;;;;;6337607;22;46041;-75
2023/05/09 20:49:21;;;;;;;;;5.00;5.00;;;;;;;;6340149;22;45187;-75
2023/05/09 20:51:46;;;;;;;;;3.00;3.00;;;;;;;;6339809;22;45164;-75
2023/05/09 20:54:12;;;;;;;;;4.67;4.67;;;;;;;;6340665;22;45202;-75
2023/05/09 20:56:37;;;;;;;;;5.00;3.67;;;;;;;;6337489;22;45674;-75
2023/05/09 20:59:02;;;;;;;;;2.00;2.00;;;;;;;;6340242;22;45148;-76
2023/05/09 21:01:34;;;;;;;;;1.00;1.00;;;;;;;;6339824;22;45123;-75
2023/05/09 21:03:59;;;;;;;;;1.00;1.00;;;;;;;;6337819;22;45195;-75
2023/05/09 21:06:24;;;;;;;;;0.00;0.00;;;;;;;;6337056;22;45752;-76
2023/05/09 21:08:50;;;;;;;;;4.00;1.00;;;;;;;;6337326;22;46667;-76
2023/05/09 21:11:16;;;;;;;;;0.00;0.00;;;;;;;;6337584;22;45172;-76
2023/05/09 21:13:41;;;;;;;;;0.00;0.00;;;;;;;;6340489;22;45696;-75
2023/05/09 21:16:06;;;;;;;;;0.00;0.00;;;;;;;;6339395;22;45437;-76
2023/05/09 21:18:32;;;;;;;;;0.00;0.00;;;;;;;;6340198;22;45278;-75
2023/05/09 21:20:59;;;;;;;;;0.00;0.00;;;;;;;;6339613;22;45249;-75
2023/05/09 21:23:24;;;;;;;;;0.33;0.00;;;;;;;;6339832;22;45261;-75
2023/05/09 21:25:50;;;;;;;;;0.00;0.00;;;;;;;;6339386;22;45310;-76
2023/05/09 21:28:16;;;;;;;;;0.00;0.00;;;;;;;;6337154;22;47909;-75
2023/05/09 21:30:41;;;;;;;;;0.00;0.00;;;;;;;;6339560;22;45250;-74
2023/05/09 21:33:06;;;;;;;;;0.00;0.00;;;;;;;;6337633;22;45308;-74
2023/05/09 21:35:31;;;;;;;;;0.00;0.00;;;;;;;;6338600;22;45168;-74
2023/05/09 21:37:56;;;;;;;;;0.00;0.00;;;;;;;;6371294;22;45404;-73
2023/05/09 21:40:22;;;;;;;;;0.67;0.67;;;;;;;;6371063;22;45246;-74
2023/05/09 21:42:47;;;;;;;;;0.00;0.00;;;;;;;;6342934;22;45274;-74
2023/05/09 21:45:12;;;;;;;;;2.33;1.33;;;;;;;;6371213;22;45202;-74
2023/05/09 21:47:38;;;;;;;;;1.00;1.00;;;;;;;;6342796;22;47196;-75
2023/05/09 21:50:03;;;;;;;;;1.00;1.00;;;;;;;;6370309;22;45235;-74
2023/05/09 21:52:29;;;;;;;;;3.00;3.00;;;;;;;;6371096;22;45171;-74
2023/05/09 21:54:54;;;;;;;;;2.00;2.00;;;;;;;;6371098;22;45154;-74
2023/05/09 21:57:19;;;;;;;;;2.00;2.00;;;;;;;;6371415;22;45084;-74
2023/05/09 21:59:44;;;;;;;;;2.00;2.00;;;;;;;;6371292;22;45207;-74
2023/05/09 22:02:10;;;;;;;;;2.33;2.00;;;;;;;;6371344;22;45223;-74
2023/05/09 22:04:35;;;;;;;;;4.67;3.00;;;;;;;;6342396;22;46187;-73
2023/05/09 22:07:00;;;;;;;;;3.67;3.00;;;;;;;;6341286;22;46639;-73
2023/05/09 22:09:25;;;;;;;;;1.00;1.00;;;;;;;;6371676;22;45199;-74
2023/05/09 22:11:51;;;;;;;;;3.00;3.00;;;;;;;;6371381;22;45225;-74
2023/05/09 22:14:17;;;;;;;;;3.00;2.00;;;;;;;;6371776;22;45235;-74
2023/05/09 22:16:42;;;;;;;;;3.00;1.00;;;;;;;;6369568;22;45980;-74